Time;durP1;ratioP1;P1;durP2;ratioP2;P2;SDS_P1;SDS_P2;PMS_P1;PMS_P2;Temp;Humidity;BMP_temperature;BMP_pressure;BME280_temperature;BME280_humidity;BME280_pressure;Samples;Min_cycle;Max_cycle;Signal;HPM_P1;HPM_P2
2021/11/04 00:02:01;;;;;;;1.67;1.67;;;;;;;9.74;94.09;100453.09;6341756;28;20246;-73
2021/11/04 00:05:06;;;;;;;1.67;1.45;;;;;;;9.64;94.62;100464.47;6341274;28;20183;-73
2021/11/04 00:08:14;;;;;;;2.03;1.92;;;;;;;9.66;94.56;100459.63;6341656;28;20265;-73
2021/11/04 00:11:19;;;;;;;1.60;1.60;;;;;;;9.60;94.79;100468.72;6341257;28;20190;-73
2021/11/04 00:14:23;;;;;;;1.80;1.80;;;;;;;9.63;95.41;100470.97;6341480;28;20183;-73
2021/11/04 00:17:28;;;;;;;1.80;1.80;;;;;;;9.58;95.30;100470.78;6341422;28;20217;-73
2021/11/04 00:20:32;;;;;;;1.92;1.92;;;;;;;9.59;96.19;100477.91;6340041;28;20520;-73
2021/11/04 00:23:38;;;;;;;2.35;1.55;;;;;;;9.46;95.18;100467.09;6341193;28;20183;-73
2021/11/04 00:26:43;;;;;;;1.60;1.60;;;;;;;9.50;96.02;100479.22;6341222;28;20225;-73
2021/11/04 00:29:47;;;;;;;1.88;1.58;;;;;;;9.58;94.85;100481.69;6341237;28;20190;-73
2021/11/04 00:32:53;;;;;;;1.50;1.50;;;;;;;9.57;94.33;100484.63;6341027;28;20186;-73
2021/11/04 00:35:57;;;;;;;1.58;1.50;;;;;;;9.58;95.48;100489.84;6339563;28;20378;-73
2021/11/04 00:39:03;;;;;;;1.60;1.60;;;;;;;9.52;95.42;100498.91;6340024;28;20186;-73
2021/11/04 00:42:07;;;;;;;1.83;1.83;;;;;;;9.47;94.46;100490.56;6339520;28;20183;-73
2021/11/04 00:45:13;;;;;;;1.92;1.80;;;;;;;9.53;95.38;100489.69;6340216;28;20242;-73
2021/11/04 00:48:21;;;;;;;1.63;1.63;;;;;;;9.55;95.17;100498.50;6339940;28;20209;-73
2021/11/04 00:51:25;;;;;;;1.70;1.70;;;;;;;9.60;94.69;100495.94;6339303;28;20423;-73
2021/11/04 00:54:31;;;;;;;1.60;1.60;;;;;;;9.56;94.85;100500.13;6340028;28;20222;-73
2021/11/04 00:57:35;;;;;;;1.45;1.45;;;;;;;9.40;94.40;100506.09;6338963;28;20238;-73
2021/11/04 01:00:40;;;;;;;1.90;1.80;;;;;;;9.14;95.44;100500.78;6340095;28;20182;-73
2021/11/04 01:03:45;;;;;;;1.73;1.60;;;;;;;9.23;95.89;100500.31;6339988;28;20190;-73
2021/11/04 01:06:50;;;;;;;1.63;1.63;;;;;;;9.22;95.93;100508.69;6338872;28;20261;-73
2021/11/04 01:09:55;;;;;;;1.65;1.65;;;;;;;9.14;95.18;100511.66;6340234;28;20220;-73
2021/11/04 01:12:59;;;;;;;1.65;1.65;;;;;;;9.24;94.38;100512.88;6339740;28;20246;-73
2021/11/04 01:16:05;;;;;;;2.53;1.80;;;;;;;9.22;94.99;100514.13;6339824;28;20183;-73
2021/11/04 01:19:12;;;;;;;2.28;1.75;;;;;;;9.19;94.37;100515.41;6339972;28;20211;-74
2021/11/04 01:22:16;;;;;;;1.63;1.63;;;;;;;9.15;94.74;100521.50;6339578;28;20353;-73
2021/11/04 01:25:22;;;;;;;1.65;1.58;;;;;;;9.14;93.37;100517.94;6339893;28;20264;-74
2021/11/04 01:28:26;;;;;;;1.58;1.58;;;;;;;9.09;95.05;100525.09;6339644;28;20194;-73
2021/11/04 01:31:30;;;;;;;1.48;1.48;;;;;;;9.07;93.66;100532.63;6339391;28;20249;-73
2021/11/04 01:34:35;;;;;;;1.30;1.30;;;;;;;9.14;93.00;100538.88;6339310;28;20269;-73
2021/11/04 01:37:39;;;;;;;1.20;1.20;;;;;;;9.09;94.12;100541.41;6338067;28;20505;-73
2021/11/04 01:40:45;;;;;;;1.20;1.20;;;;;;;9.01;93.09;100555.25;6339250;28;20183;-73
2021/11/04 01:43:49;;;;;;;1.88;1.35;;;;;;;9.09;92.61;100552.31;6338069;28;20461;-73
2021/11/04 01:46:53;;;;;;;2.63;1.40;;;;;;;9.07;92.70;100554.38;6339032;28;20190;-74
2021/11/04 01:49:59;;;;;;;1.40;1.40;;;;;;;8.99;92.54;100551.91;6338881;28;20182;-73
2021/11/04 01:53:03;;;;;;;2.75;1.30;;;;;;;9.06;91.72;100558.16;6338844;28;20222;-73
2021/11/04 01:56:12;;;;;;;1.48;1.48;;;;;;;8.93;91.93;100555.47;6339076;28;20183;-74
2021/11/04 01:59:17;;;;;;;1.55;1.38;;;;;;;8.82;92.49;100546.94;6337590;28;20401;-73
2021/11/04 02:02:24;;;;;;;1.40;1.40;;;;;;;8.81;91.73;100567.00;6338910;28;20196;-73
2021/11/04 02:05:35;;;;;;;1.17;1.17;;;;;;;8.86;92.31;100574.53;6337530;28;20478;-73
2021/11/04 02:08:47;;;;;;;1.40;1.30;;;;;;;8.83;92.12;100564.91;6337449;28;20493;-73
2021/11/04 02:11:59;;;;;;;1.33;1.33;;;;;;;8.89;92.50;100567.81;6337383;28;20268;-73
2021/11/04 02:15:05;;;;;;;1.42;1.42;;;;;;;8.77;93.75;100576.66;6338698;28;20214;-73
2021/11/04 02:18:18;;;;;;;8.18;1.50;;;;;;;8.88;92.80;100571.59;6338014;28;20211;-73
2021/11/04 02:21:34;;;;;;;3.40;1.50;;;;;;;8.77;93.31;100565.78;6337260;28;20407;-73
2021/11/04 02:24:43;;;;;;;1.23;1.23;;;;;;;8.67;93.12;100565.38;6338158;28;20183;-73
2021/11/04 02:27:50;;;;;;;1.30;1.30;;;;;;;8.43;91.93;100573.31;6338416;28;20296;-73
2021/11/04 02:30:56;;;;;;;1.23;1.23;;;;;;;8.63;92.24;100585.84;6338069;28;20183;-73
2021/11/04 02:34:01;;;;;;;1.00;1.00;;;;;;;8.67;91.83;100580.84;6336789;28;20486;-73
2021/11/04 02:37:07;;;;;;;1.20;1.20;;;;;;;8.54;91.93;100581.69;6337925;28;20190;-73
2021/11/04 02:40:12;;;;;;;1.15;1.15;;;;;;;8.74;91.58;100581.66;6337840;28;20204;-73
2021/11/04 02:43:19;;;;;;;1.40;1.40;;;;;;;8.78;91.85;100583.75;6336865;28;20189;-73
2021/11/04 02:46:24;;;;;;;1.45;1.35;;;;;;;8.63;91.69;100591.28;6337937;28;20187;-73
2021/11/04 02:49:30;;;;;;;1.60;1.60;;;;;;;8.36;93.12;100595.06;6336993;28;20373;-73
2021/11/04 02:52:35;;;;;;;1.73;1.63;;;;;;;8.52;92.63;100593.81;6336494;28;20199;-73
2021/11/04 02:55:39;;;;;;;1.58;1.58;;;;;;;8.46;93.12;100605.53;6337873;28;20215;-73
2021/11/04 02:58:45;;;;;;;1.40;1.40;;;;;;;8.56;91.78;100595.91;6337294;28;20233;-74
2021/11/04 03:01:53;;;;;;;1.27;1.27;;;;;;;8.48;93.12;100607.00;6336137;28;20474;-75
2021/11/04 03:04:56;;;;;;;1.30;1.30;;;;;;;8.60;92.50;100602.59;6336749;28;20259;-73
2021/11/04 03:08:01;;;;;;;1.40;1.30;;;;;;;8.67;91.31;100608.88;6337704;28;20218;-73
2021/11/04 03:11:05;;;;;;;1.13;1.13;;;;;;;8.70;92.04;100613.06;6336523;28;20371;-73
2021/11/04 03:14:11;;;;;;;4.95;1.42;;;;;;;8.62;91.84;100611.41;6336915;28;20408;-73
2021/11/04 03:17:17;;;;;;;1.30;1.30;;;;;;;8.65;91.67;100616.38;6336718;28;20501;-73
2021/11/04 03:20:21;;;;;;;1.67;1.67;;;;;;;8.49;92.74;100622.28;6337833;28;20238;-73
2021/11/04 03:23:26;;;;;;;1.50;1.50;;;;;;;8.46;93.96;100611.81;6337425;28;20183;-73
2021/11/04 03:26:31;;;;;;;1.30;1.30;;;;;;;8.64;91.60;100625.63;6337729;28;20190;-74
2021/11/04 03:29:38;;;;;;;1.40;1.40;;;;;;;8.59;91.47;100628.13;6337697;28;20296;-74
2021/11/04 03:32:44;;;;;;;2.67;1.50;;;;;;;8.54;91.52;100627.91;6336522;28;20378;-74
2021/11/04 03:35:50;;;;;;;1.40;1.40;;;;;;;8.33;89.85;100633.53;6337034;28;20210;-73
2021/11/04 03:38:55;;;;;;;1.42;1.42;;;;;;;8.31;92.64;100629.34;6337532;28;20275;-73
2021/11/04 03:42:00;;;;;;;2.38;1.50;;;;;;;8.34;90.76;100639.81;6336161;28;20380;-73
2021/11/04 03:45:07;;;;;;;1.38;1.30;;;;;;;8.43;89.91;100639.41;6337431;28;20230;-73
2021/11/04 03:48:14;;;;;;;1.30;1.30;;;;;;;8.30;91.04;100638.53;6337451;28;20226;-73
2021/11/04 03:51:18;;;;;;;1.40;1.40;;;;;;;8.31;91.38;100643.78;6337306;28;20183;-74
2021/11/04 03:54:26;;;;;;;1.48;1.40;;;;;;;8.28;90.48;100636.03;6336717;28;20431;-74
2021/11/04 03:57:30;;;;;;;1.55;1.55;;;;;;;8.37;90.73;100637.50;6336475;28;20218;-73
2021/11/04 04:00:36;;;;;;;1.20;1.20;;;;;;;8.44;90.86;100651.97;6335758;28;20586;-73
2021/11/04 04:03:43;;;;;;;1.65;1.58;;;;;;;8.46;90.64;100660.75;6336812;28;20187;-73
2021/11/04 04:06:51;;;;;;;2.97;1.90;;;;;;;8.34;90.92;100664.28;6336268;28;20197;-74
2021/11/04 04:09:55;;;;;;;3.00;1.50;;;;;;;8.37;91.53;100666.59;6335904;28;20470;-74
2021/11/04 04:13:01;;;;;;;2.85;1.40;;;;;;;8.54;90.53;100671.44;6335766;28;20498;-73
2021/11/04 04:16:07;;;;;;;1.50;1.50;;;;;;;8.42;91.21;100661.38;6340640;28;20279;-73
2021/11/04 04:19:12;;;;;;;1.75;1.35;;;;;;;8.58;89.77;100669.94;6341160;28;20207;-73
2021/11/04 04:22:16;;;;;;;1.20;1.20;;;;;;;8.44;89.92;100673.72;6341038;28;20183;-73
2021/11/04 04:25:24;;;;;;;1.17;1.17;;;;;;;8.51;89.13;100676.44;6340057;28;20422;-73
2021/11/04 04:28:29;;;;;;;1.40;1.40;;;;;;;8.12;89.60;100682.59;6341115;28;20187;-74
2021/11/04 04:31:34;;;;;;;1.35;1.35;;;;;;;8.29;89.25;100678.50;6340979;28;20187;-73
2021/11/04 04:34:38;;;;;;;2.45;1.48;;;;;;;8.33;89.89;100687.91;6339909;28;20494;-73
2021/11/04 04:37:42;;;;;;;5.40;1.58;;;;;;;8.39;90.19;100684.38;6340780;28;20277;-74
2021/11/04 04:40:46;;;;;;;1.48;1.42;;;;;;;8.49;89.40;100682.09;6339891;28;20232;-73
2021/11/04 04:43:51;;;;;;;1.60;1.60;;;;;;;8.39;90.20;100687.09;6339763;28;20268;-74
2021/11/04 04:46:56;;;;;;;1.63;1.63;;;;;;;8.17;90.37;100688.25;6339460;28;20423;-73
2021/11/04 04:50:04;;;;;;;1.55;1.50;;;;;;;8.25;91.27;100696.22;6339853;28;20472;-74
2021/11/04 04:53:10;;;;;;;1.40;1.40;;;;;;;8.39;90.01;100703.41;6339522;28;20198;-73
2021/11/04 04:56:14;;;;;;;1.60;1.52;;;;;;;8.42;89.17;100708.44;6340615;28;20218;-74
2021/11/04 04:59:18;;;;;;;4.10;1.55;;;;;;;8.31;89.24;100711.75;6340600;28;20299;-74
2021/11/04 05:02:24;;;;;;;1.58;1.58;;;;;;;8.21;89.36;100722.13;6339003;28;20404;-74
2021/11/04 05:05:28;;;;;;;2.38;1.50;;;;;;;8.20;90.29;100715.03;6339050;28;20237;-74
2021/11/04 05:08:32;;;;;;;1.33;1.33;;;;;;;8.26;89.52;100714.22;6339130;28;20236;-74
2021/11/04 05:11:37;;;;;;;1.52;1.52;;;;;;;8.40;89.24;100715.94;6339918;28;20214;-73
2021/11/04 05:14:41;;;;;;;1.67;1.58;;;;;;;8.39;89.76;100717.00;6339433;28;20206;-73
2021/11/04 05:17:47;;;;;;;1.77;1.75;;;;;;;8.32;90.84;100735.16;6339742;28;20214;-74
2021/11/04 05:20:51;;;;;;;1.52;1.52;;;;;;;8.42;89.45;100729.34;6338948;28;20211;-74
2021/11/04 05:23:56;;;;;;;1.50;1.50;;;;;;;8.39;88.98;100738.75;6338486;28;20560;-74
2021/11/04 05:27:00;;;;;;;2.00;1.60;;;;;;;8.12;90.36;100756.81;6339769;28;20214;-73
2021/11/04 05:30:06;;;;;;;1.73;1.63;;;;;;;8.11;91.14;100759.72;6339447;28;20187;-74
2021/11/04 05:33:15;;;;;;;1.88;1.80;;;;;;;8.07;91.13;100761.16;6339803;28;20225;-73
2021/11/04 05:36:20;;;;;;;2.70;1.90;;;;;;;8.24;91.78;100757.06;6338309;28;20235;-73
2021/11/04 05:39:24;;;;;;;2.00;1.90;;;;;;;8.31;92.01;100755.22;6339167;28;20228;-74
2021/11/04 05:42:28;;;;;;;1.92;1.83;;;;;;;8.28;91.78;100766.50;6338344;28;20210;-74
2021/11/04 05:45:32;;;;;;;2.00;2.00;;;;;;;8.36;91.09;100777.22;6311932;28;20263;-74
2021/11/04 05:48:38;;;;;;;2.40;2.30;;;;;;;8.19;92.08;100773.16;6313117;28;20191;-74
2021/11/04 05:51:42;;;;;;;1.98;1.98;;;;;;;8.19;91.15;100784.03;6314053;28;20187;-74
2021/11/04 05:54:47;;;;;;;2.28;2.15;;;;;;;8.24;91.59;100792.41;6312714;28;20199;-74
2021/11/04 05:57:51;;;;;;;2.22;2.22;;;;;;;8.19;91.35;100794.88;6314017;28;20247;-74
2021/11/04 06:00:55;;;;;;;2.53;2.33;;;;;;;8.27;91.43;100793.91;6313449;28;20329;-74
2021/11/04 06:04:01;;;;;;;2.10;2.08;;;;;;;8.19;91.35;100779.41;6313533;28;20264;-75
2021/11/04 06:07:05;;;;;;;2.38;2.38;;;;;;;8.34;90.40;100792.88;6313798;28;20184;-75
2021/11/04 06:10:10;;;;;;;2.13;2.10;;;;;;;8.28;90.66;100793.69;6313743;28;20233;-75
2021/11/04 06:13:17;;;;;;;3.03;2.83;;;;;;;8.32;90.48;100788.69;6313799;28;20184;-75
2021/11/04 06:16:21;;;;;;;3.17;2.53;;;;;;;8.04;91.57;100803.16;6313420;28;20215;-75
2021/11/04 06:19:27;;;;;;;3.05;2.67;;;;;;;8.25;90.75;100795.94;6313042;28;20251;-75
2021/11/04 06:22:31;;;;;;;2.72;2.53;;;;;;;8.13;91.09;100798.41;6312989;28;20183;-74
2021/11/04 06:25:35;;;;;;;3.33;2.95;;;;;;;8.28;91.16;100815.44;6312420;28;20215;-74
2021/11/04 06:28:40;;;;;;;3.42;2.78;;;;;;;8.30;90.21;100810.63;6311839;28;20498;-74
2021/11/04 06:31:44;;;;;;;7.55;2.83;;;;;;;8.06;91.43;100811.94;6312974;28;20195;-75
2021/11/04 06:34:49;;;;;;;2.47;2.40;;;;;;;8.17;91.34;100819.53;6312190;28;20184;-74
2021/11/04 06:37:54;;;;;;;3.95;2.88;;;;;;;8.27;91.05;100830.06;6312285;28;20184;-75
2021/11/04 06:40:58;;;;;;;2.75;2.65;;;;;;;8.33;90.52;100823.81;6312505;28;20238;-74
2021/11/04 06:44:02;;;;;;;3.00;2.85;;;;;;;8.13;90.66;100823.72;6319206;28;20559;-75
2021/11/04 06:47:17;;;;;;;3.00;2.80;;;;;;;8.18;91.74;100836.69;6337890;28;20183;-74
2021/11/04 06:50:30;;;;;;;3.80;3.42;;;;;;;8.18;90.82;100836.69;6337756;28;20276;-74
2021/11/04 06:53:36;;;;;;;3.20;3.10;;;;;;;8.21;91.67;100852.59;6337573;28;20206;-74
2021/11/04 06:56:42;;;;;;;3.85;3.25;;;;;;;8.14;92.07;100851.69;6337543;28;20183;-74
2021/11/04 06:59:50;;;;;;;3.17;2.90;;;;;;;8.00;92.98;100860.81;6337650;28;20189;-75
2021/11/04 07:02:58;;;;;;;5.63;3.28;;;;;;;7.96;92.18;100865.00;6337545;28;20214;-75
2021/11/04 07:06:08;;;;;;;3.00;2.78;;;;;;;7.94;93.09;100867.03;6337107;28;20250;-74
2021/11/04 07:09:13;;;;;;;3.88;3.08;;;;;;;8.19;90.96;100865.56;6335813;28;20474;-73
2021/11/04 07:12:18;;;;;;;2.90;2.80;;;;;;;8.00;91.41;100860.81;6335896;28;20190;-74
2021/11/04 07:15:23;;;;;;;3.58;3.28;;;;;;;7.92;91.08;100874.56;6337411;28;20186;-74
2021/11/04 07:18:29;;;;;;;3.22;2.85;;;;;;;8.09;90.84;100878.63;6337109;28;20221;-74
2021/11/04 07:21:43;;;;;;;3.30;3.10;;;;;;;8.01;91.45;100889.69;6337274;28;20215;-74
2021/11/04 07:24:48;;;;;;;3.72;3.30;;;;;;;8.02;92.08;100892.19;6336821;28;20183;-74
2021/11/04 07:27:58;;;;;;;3.45;3.28;;;;;;;8.16;91.06;100882.25;6336080;28;20263;-73
2021/11/04 07:31:04;;;;;;;5.35;3.10;;;;;;;8.16;91.18;100898.56;6335802;28;20187;-73
2021/11/04 07:34:13;;;;;;;5.03;3.13;;;;;;;8.13;91.25;100910.66;6337112;28;20195;-73
2021/11/04 07:37:19;;;;;;;4.72;3.00;;;;;;;8.15;90.68;100919.47;6335832;28;20205;-73
2021/11/04 07:40:25;;;;;;;3.15;3.05;;;;;;;8.15;91.12;100913.19;6335669;28;20467;-73
2021/11/04 07:43:30;;;;;;;3.70;3.00;;;;;;;8.03;92.06;100910.19;6336178;28;20234;-73
2021/11/04 07:46:35;;;;;;;3.20;3.10;;;;;;;8.23;91.09;100910.31;6335617;28;20206;-74
2021/11/04 07:49:39;;;;;;;4.28;3.20;;;;;;;8.21;91.41;100917.81;6340907;28;20186;-74
2021/11/04 07:52:45;;;;;;;3.30;3.20;;;;;;;8.08;91.54;100915.88;6341826;28;20202;-73
2021/11/04 07:55:51;;;;;;;3.22;3.05;;;;;;;8.21;91.36;100923.25;6340498;28;20517;-73
2021/11/04 07:58:55;;;;;;;3.10;3.00;;;;;;;8.34;90.11;100927.97;6341670;28;20300;-75
2021/11/04 08:02:01;;;;;;;5.90;3.28;;;;;;;8.09;90.18;100935.69;6340617;28;20213;-73
2021/11/04 08:05:11;;;;;;;3.47;3.17;;;;;;;8.13;90.54;100943.28;6340725;28;20183;-73
2021/11/04 08:08:18;;;;;;;3.35;3.15;;;;;;;8.02;90.37;100943.81;6340072;28;20189;-73
2021/11/04 08:11:22;;;;;;;3.97;3.72;;;;;;;8.02;91.94;100951.13;6340910;28;20187;-74
2021/11/04 08:14:27;;;;;;;4.05;3.85;;;;;;;8.33;90.60;100957.03;6340619;28;20206;-74
2021/11/04 08:17:31;;;;;;;3.85;3.65;;;;;;;8.19;91.99;100957.97;6341223;28;20183;-73
2021/11/04 08:20:35;;;;;;;4.70;3.90;;;;;;;8.15;91.47;100956.66;6340778;28;20192;-73
2021/11/04 08:23:41;;;;;;;4.50;3.53;;;;;;;8.22;92.24;100957.53;6340960;28;20251;-74
2021/11/04 08:26:46;;;;;;;6.40;3.97;;;;;;;8.31;92.32;100955.53;6339734;28;20183;-73
2021/11/04 08:29:50;;;;;;;4.13;3.85;;;;;;;8.25;91.46;100959.88;6339623;28;20455;-73
2021/11/04 08:32:54;;;;;;;4.82;4.40;;;;;;;8.43;91.85;100960.22;6339756;28;20376;-73
2021/11/04 08:35:58;;;;;;;6.28;4.82;;;;;;;8.45;90.69;100969.00;6340482;28;20214;-74
2021/11/04 08:39:04;;;;;;;6.30;4.55;;;;;;;8.47;91.11;100972.41;6340529;28;20250;-73
2021/11/04 08:42:12;;;;;;;6.10;4.20;;;;;;;8.46;90.99;100976.13;6340376;28;20207;-74
2021/11/04 08:45:17;;;;;;;4.47;4.07;;;;;;;8.32;91.03;100990.66;6339167;28;20469;-74
2021/11/04 08:48:21;;;;;;;7.88;4.30;;;;;;;8.33;91.58;100992.38;6339300;28;20409;-73
2021/11/04 08:51:25;;;;;;;3.92;3.67;;;;;;;8.47;91.15;100986.00;6340251;28;20191;-73
2021/11/04 08:54:32;;;;;;;3.95;3.72;;;;;;;8.54;90.36;100994.16;6339727;28;20229;-74
2021/11/04 08:57:36;;;;;;;5.00;3.42;;;;;;;8.71;90.29;101001.81;6339014;28;20215;-73
2021/11/04 09:00:41;;;;;;;4.93;3.70;;;;;;;8.69;90.34;101003.03;6339203;28;20219;-74
2021/11/04 09:03:45;;;;;;;4.60;4.00;;;;;;;8.70;90.74;101005.59;6340136;28;20242;-74
2021/11/04 09:06:51;;;;;;;5.65;3.80;;;;;;;8.73;91.40;101002.44;6339249;28;20218;-74
2021/11/04 09:09:57;;;;;;;4.10;3.70;;;;;;;8.80;91.05;101011.50;6338801;28;20190;-74
2021/11/04 09:13:01;;;;;;;4.43;3.85;;;;;;;8.80;91.25;101008.78;6339763;28;20253;-74
2021/11/04 09:16:05;;;;;;;6.28;4.55;;;;;;;8.79;91.46;101009.81;6339877;28;20294;-73
2021/11/04 09:19:11;;;;;;;4.53;4.07;;;;;;;8.76;91.45;101021.09;6339732;28;20209;-74
2021/11/04 09:22:17;;;;;;;4.55;4.10;;;;;;;8.74;92.45;101022.31;6339427;28;20270;-73
2021/11/04 09:25:24;;;;;;;11.25;4.97;;;;;;;8.70;92.04;101002.88;6339779;28;20281;-73
2021/11/04 09:28:28;;;;;;;4.90;3.72;;;;;;;8.67;92.31;101005.97;6338503;28;20187;-73
2021/11/04 09:31:33;;;;;;;4.50;4.20;;;;;;;8.75;92.14;101013.97;6338352;28;20209;-73
2021/11/04 09:34:38;;;;;;;5.53;4.15;;;;;;;8.85;91.02;101012.75;6339248;28;20182;-73
2021/11/04 09:37:43;;;;;;;4.47;4.28;;;;;;;8.79;90.85;101015.25;6338191;28;20380;-74
2021/11/04 09:40:49;;;;;;;6.00;4.55;;;;;;;8.88;91.77;101009.63;6338972;28;20250;-74
2021/11/04 09:43:54;;;;;;;9.30;4.93;;;;;;;8.96;91.26;101009.47;6320257;28;20265;-73
2021/11/04 09:46:58;;;;;;;9.93;4.97;;;;;;;8.97;91.17;101005.69;6339090;28;20190;-73
2021/11/04 09:50:06;;;;;;;6.55;4.90;;;;;;;8.92;91.72;101008.19;6339143;28;20321;-74
2021/11/04 09:53:11;;;;;;;11.60;4.82;;;;;;;8.67;90.92;101005.13;6338003;28;20387;-74
2021/11/04 09:56:18;;;;;;;5.13;4.53;;;;;;;8.72;91.49;101003.50;6339021;28;20190;-73
2021/11/04 09:59:22;;;;;;;4.80;4.45;;;;;;;8.91;90.29;101022.84;6338636;28;20221;-75
2021/11/04 10:02:28;;;;;;;6.13;4.38;;;;;;;8.94;90.19;101011.53;6338300;28;20217;-74
2021/11/04 10:05:40;;;;;;;4.70;4.40;;;;;;;8.88;91.27;101017.81;6338766;28;20183;-74
2021/11/04 10:08:49;;;;;;;5.68;4.43;;;;;;;8.96;90.33;101017.63;6338731;28;20183;-74
2021/11/04 10:11:55;;;;;;;5.32;4.35;;;;;;;8.76;90.00;101004.75;6336218;28;20349;-74
2021/11/04 10:15:12;;;;;;;4.43;4.13;;;;;;;8.92;90.00;101016.34;6338247;28;20183;-74
2021/11/04 10:18:19;;;;;;;5.88;4.30;;;;;;;8.93;91.21;101013.44;6337230;28;20397;-74
2021/11/04 10:21:25;;;;;;;10.50;4.30;;;;;;;9.04;89.41;101017.47;6337186;28;20183;-74
2021/11/04 10:24:29;;;;;;;6.35;4.13;;;;;;;9.08;90.38;101029.63;6338596;28;20211;-75
2021/11/04 10:27:38;;;;;;;7.70;4.57;;;;;;;9.14;89.56;101028.81;6338010;28;20183;-74
2021/11/04 10:30:43;;;;;;;5.10;4.32;;;;;;;9.09;91.30;101031.31;6337079;28;20206;-74
2021/11/04 10:33:49;;;;;;;7.35;4.00;;;;;;;9.12;90.07;101030.88;6337864;28;20231;-74
2021/11/04 10:36:55;;;;;;;8.45;4.40;;;;;;;9.10;89.70;101022.09;6337107;28;20259;-74
2021/11/04 10:40:06;;;;;;;8.45;4.35;;;;;;;9.08;89.74;101027.75;6338012;28;20189;-74
2021/11/04 10:43:11;;;;;;;4.47;4.07;;;;;;;9.17;89.41;101017.50;6336349;28;20207;-74
2021/11/04 10:46:16;;;;;;;6.88;4.25;;;;;;;9.22;88.90;101025.91;6337522;28;20205;-74
2021/11/04 10:49:22;;;;;;;3.63;3.45;;;;;;;9.29;89.03;101021.34;6337625;28;20215;-74
2021/11/04 10:52:29;;;;;;;10.88;3.80;;;;;;;9.24;89.82;101032.00;6337632;28;20301;-73
2021/11/04 10:55:33;;;;;;;4.00;3.03;;;;;;;9.34;88.01;101024.28;6337497;28;20236;-73
2021/11/04 10:58:38;;;;;;;7.45;3.65;;;;;;;9.36;87.34;101022.19;6337520;28;20193;-73
2021/11/04 11:01:45;;;;;;;3.92;3.58;;;;;;;9.31;88.62;101024.69;6337230;28;20183;-73
2021/11/04 11:04:49;;;;;;;4.18;3.75;;;;;;;9.36;89.22;101027.63;6337309;28;20275;-75
2021/11/04 11:07:55;;;;;;;3.40;3.20;;;;;;;9.36;88.07;101022.19;6336257;28;20202;-74
2021/11/04 11:10:59;;;;;;;4.40;3.45;;;;;;;9.43;88.40;101017.59;6337091;28;20248;-74
2021/11/04 11:14:05;;;;;;;5.22;3.25;;;;;;;9.49;87.05;101022.22;6337328;28;20262;-74
2021/11/04 11:17:10;;;;;;;5.60;4.03;;;;;;;9.45;86.76;101019.06;6335909;28;20218;-74
2021/11/04 11:20:15;;;;;;;6.05;3.40;;;;;;;9.53;86.17;101023.50;6337157;28;20183;-74
2021/11/04 11:23:21;;;;;;;4.72;2.90;;;;;;;9.48;86.35;101026.00;6339457;28;20206;-74
2021/11/04 11:26:26;;;;;;;4.57;3.10;;;;;;;9.54;85.53;101021.59;6342315;28;20186;-74
2021/11/04 11:29:35;;;;;;;2.90;2.80;;;;;;;9.58;86.37;101014.72;6342170;28;20214;-74
2021/11/04 11:32:56;;;;;;;3.03;2.83;;;;;;;9.65;85.49;101015.56;6342445;28;20187;-74
2021/11/04 11:36:11;;;;;;;3.45;3.00;;;;;;;9.79;85.48;101007.19;6341990;28;20246;-74
2021/11/04 11:39:17;;;;;;;3.33;3.13;;;;;;;9.69;85.62;101005.94;6342070;28;20190;-74
2021/11/04 11:42:23;;;;;;;5.07;3.13;;;;;;;9.69;85.64;101012.22;6341765;28;20258;-74
2021/11/04 11:45:30;;;;;;;3.67;3.50;;;;;;;9.77;86.03;101014.75;6341752;28;20384;-75
2021/11/04 11:48:35;;;;;;;3.63;3.20;;;;;;;9.79;87.09;101006.34;6340999;28;20458;-75
2021/11/04 11:51:40;;;;;;;3.78;3.58;;;;;;;9.67;84.62;101013.47;6342061;28;20273;-74
2021/11/04 11:55:09;;;;;;;4.70;4.30;;;;;;;9.72;87.11;101011.81;6341663;28;20442;-74
2021/11/04 11:58:22;;;;;;;4.05;3.67;;;;;;;9.73;86.00;101008.03;6342017;28;20183;-74
2021/11/04 12:01:45;;;;;;;5.72;3.50;;;;;;;9.75;84.16;100995.06;6341608;28;20183;-74
2021/11/04 12:05:38;;;;;;;3.65;3.45;;;;;;;9.62;85.44;101005.94;6341317;28;20214;-74
2021/11/04 12:08:47;;;;;;;6.00;3.60;;;;;;;9.45;87.44;101001.88;6341068;28;20198;-74
2021/11/04 12:11:51;;;;;;;4.13;3.70;;;;;;;9.62;86.71;101014.09;6341330;28;20190;-74
2021/11/04 12:15:01;;;;;;;4.78;4.03;;;;;;;9.60;84.59;101013.47;6341536;28;20218;-74
2021/11/04 12:18:16;;;;;;;3.53;3.42;;;;;;;9.70;85.52;101013.91;6341470;28;20280;-74
2021/11/04 12:21:26;;;;;;;3.65;3.50;;;;;;;9.59;83.90;101011.78;6340018;28;20531;-73
2021/11/04 12:24:30;;;;;;;3.35;3.00;;;;;;;9.63;84.95;101010.31;6340905;28;20207;-74
2021/11/04 12:27:37;;;;;;;3.47;3.17;;;;;;;9.67;84.36;101002.56;6339724;28;20190;-74
2021/11/04 12:30:41;;;;;;;3.92;3.53;;;;;;;9.55;85.93;101010.53;6339834;28;20492;-73
2021/11/04 12:33:47;;;;;;;5.78;2.90;;;;;;;9.65;82.08;100989.19;6339384;28;20423;-74
2021/11/04 12:36:53;;;;;;;4.03;2.88;;;;;;;9.64;81.30;100987.47;6339348;28;20187;-74
2021/11/04 12:39:58;;;;;;;2.67;2.50;;;;;;;9.62;83.28;100986.84;6339602;28;20358;-74
2021/11/04 12:43:07;;;;;;;2.80;2.60;;;;;;;9.66;83.39;100984.53;6339799;28;20246;-73
2021/11/04 12:46:13;;;;;;;2.47;2.45;;;;;;;9.61;84.44;100987.88;6315212;28;20192;-74
2021/11/04 12:49:25;;;;;;;2.75;2.58;;;;;;;9.53;86.17;100985.34;6315259;28;20316;-74
2021/11/04 12:52:29;;;;;;;2.70;2.60;;;;;;;9.59;85.14;100989.16;6314446;28;20199;-74
2021/11/04 12:55:34;;;;;;;2.85;2.63;;;;;;;9.61;84.27;100987.88;6314091;28;20501;-74
2021/11/04 12:58:38;;;;;;;2.80;2.58;;;;;;;9.60;85.54;100975.34;6313970;28;20470;-73
2021/11/04 13:02:00;;;;;;;3.05;2.55;;;;;;;9.60;85.52;100972.63;6315274;28;20218;-73
2021/11/04 13:05:11;;;;;;;4.45;2.55;;;;;;;9.56;85.69;100979.50;6314947;28;20211;-74
2021/11/04 13:08:19;;;;;;;2.63;2.50;;;;;;;9.57;85.31;100981.19;6314686;28;20184;-74
2021/11/04 13:11:24;;;;;;;2.80;2.70;;;;;;;9.55;85.93;100988.75;6314711;28;20190;-74
2021/11/04 13:14:28;;;;;;;5.00;2.58;;;;;;;9.56;87.41;100984.09;6314798;28;20257;-74
2021/11/04 13:17:49;;;;;;;3.97;2.90;;;;;;;9.48;84.64;100974.25;6314861;28;20268;-74
2021/11/04 13:20:54;;;;;;;3.50;2.80;;;;;;;9.50;84.98;100974.88;6313432;28;20475;-74
2021/11/04 13:23:59;;;;;;;13.95;2.80;;;;;;;9.61;85.00;100974.28;6313098;28;20571;-74
2021/11/04 13:27:03;;;;;;;3.55;3.33;;;;;;;9.64;85.17;100971.13;6313052;28;20190;-74
2021/11/04 13:30:09;;;;;;;4.10;2.92;;;;;;;9.59;84.81;100962.75;6314295;28;20184;-74
2021/11/04 13:33:34;;;;;;;2.78;2.63;;;;;;;9.66;85.84;100968.19;6313829;28;20184;-74
2021/11/04 13:36:40;;;;;;;4.03;2.90;;;;;;;9.54;85.38;100981.59;6313012;28;20523;-74
2021/11/04 13:39:45;;;;;;;2.90;2.80;;;;;;;9.53;86.36;100985.34;6312981;28;20502;-74
2021/11/04 13:42:51;;;;;;;8.93;2.85;;;;;;;9.51;85.82;100976.56;6313975;28;20183;-73
2021/11/04 13:46:05;;;;;;;3.47;2.70;;;;;;;9.52;85.53;100978.25;6336137;28;20241;-74
2021/11/04 13:49:13;;;;;;;4.07;2.55;;;;;;;9.46;86.33;100984.50;6338891;28;20183;-74
2021/11/04 13:52:25;;;;;;;3.42;2.60;;;;;;;9.50;85.64;100968.59;6337811;28;20439;-74
2021/11/04 13:55:31;;;;;;;4.93;2.60;;;;;;;9.48;85.56;100971.53;6337703;28;20286;-73
2021/11/04 13:58:43;;;;;;;8.13;3.30;;;;;;;9.43;85.43;100974.03;6338992;28;20187;-73
2021/11/04 14:01:53;;;;;;;5.03;2.70;;;;;;;9.45;85.71;100961.03;6338436;28;20187;-73
2021/11/04 14:04:58;;;;;;;3.08;2.88;;;;;;;9.41;85.80;100970.69;6338396;28;20245;-73
2021/11/04 14:08:04;;;;;;;5.45;2.88;;;;;;;9.36;85.34;100965.00;6337285;28;20202;-73
2021/11/04 14:11:12;;;;;;;3.95;2.83;;;;;;;9.34;85.71;100964.38;6338744;28;20190;-73
2021/11/04 14:14:16;;;;;;;2.78;2.70;;;;;;;9.31;85.73;100964.78;6337336;28;20190;-74
2021/11/04 14:17:23;;;;;;;2.97;2.88;;;;;;;9.23;85.91;100945.91;6338164;28;20183;-73
2021/11/04 14:20:31;;;;;;;4.57;3.30;;;;;;;9.17;85.37;100946.72;6337482;28;20246;-73
2021/11/04 14:23:36;;;;;;;4.55;2.78;;;;;;;9.18;86.10;100948.41;6338031;28;20191;-73
2021/11/04 14:26:40;;;;;;;3.15;2.70;;;;;;;9.08;86.23;100947.97;6336873;28;20437;-73
2021/11/04 14:29:45;;;;;;;12.50;2.80;;;;;;;9.08;86.00;100937.09;6338281;28;20206;-74
2021/11/04 14:32:53;;;;;;;2.97;2.83;;;;;;;9.01;86.03;100936.22;6338101;28;20183;-74
2021/11/04 14:35:57;;;;;;;3.22;3.08;;;;;;;8.92;85.85;100951.03;6336801;28;20470;-74
2021/11/04 14:39:05;;;;;;;5.20;2.97;;;;;;;8.97;85.84;100956.72;6338087;28;20182;-73